Marshfield, Missouri
Current Conditions -  °F | °C
As of 7:52 PM on Wednesday 26 Nov 2014 (Local Time) from KSGF Reporting Station
Overcast Overcast  
Wind Chill: 27°   Ceiling: 4500
Heat Index: 37°   Visibility: 10mi
Dew Point: 26°   Wind: 17mph
Humidity: 65%   Direction: 300°WNW
Pressure: 30.2"   Gusts: 28mph
Location:  37.34°N, 92.91°W
Report Text: KSGF 270152Z 30015G24KT 10SM FEW026 BKN045 OVC050 03/M03 A3020 RMK AO2 PK WND 32030/0057 SLP235 T00281033
Loading
Personal Weather Stations






























Interactive Weather Map New forecast layout! Learn more

10-Day Weather Forecast

Advertisements
Track Severe Weather on mobile